LTAFLTAJ

Guest
Details From LTAF - ADANA
To LTAJ - OGUZELI
Flight Number -
Tags generated
Created
Modified
Stats Distance 106 nm / 195 km
Max Altitude 11,500 ft / 3,505 m
Waypoints 4
Social Downloads 5
Likes 0
Share VATSIM

Download

Looking for another format? Having issues loading an existing format? Contact us
Advertisement - Login to hide

Notes

Basic altitude profile: - Ascent Rate: 2500ft/min - Ascent Speed: 250kts - Cruise Altitude: 35000ft - Cruise Speed: 420kts - Descent Rate: 1500ft/min - Descent Speed: 250kts Options: - Use NATs: yes - Use PACOTS: yes - Use low airways: yes - Use high airways: yes

Route

LTAF KOZAN W74 GAZ LTAJ

ID Type Via Altitude Latitude Longitude Leg Dist Tot Dist Heading (true) Name
O LTAF APT - 0 ft / 0 m 36.98214˚ 35.28039˚ - 0 nm - ADANA
KOZAN FIX - 3,300 ft / 1,006 m 36.95417˚ 37.15417˚ 89 nm 89 nm 91° / 92° -
GAZ NDB W74 (AWY-LO) 11,500 ft / 3,505 m 36.95028˚ 37.47333˚ 15 nm 105 nm 91° / 91° OGUZELI NDB
O LTAJ APT - 0 ft / 0 m 36.94735˚ 37.47806˚ 0 nm 105 nm 128° / 128° OGUZELI

Altitude Profile

Advertisement - Login to hide

LTAF

Details ICAO LTAF (ADA)
Name ADANA
Region Turkey
Timezone Europe/Istanbul (UTC+3.0)
Stats Elevation 65 ft / 20 m (AMSL)
Location 36.982142° 35.280394°
Runways 1
Magnetic Variation 5.352° E

METAR

LTAF 111850Z VRB02KT 4000 1900S BR NSC 10/06 Q1026 NOSIG

Decode

TAF

Not found

Departure Runways

ID Width Length Bearing (true) Bearing (mag) Surface Threshold Offset Overrun Length
05 148 ft / 45 m 8,979 ft / 2,737 m 53.45° 48.10° Asphalt 0 ft / 0 m 197 ft / 60 m
23 148 ft / 45 m 8,979 ft / 2,737 m 233.47° 228.12° Asphalt 0 ft / 0 m 197 ft / 60 m

LTAJ

Details ICAO LTAJ (GZT)
Name OGUZELI
Region Turkey
Timezone Europe/Istanbul (UTC+3.0)
Stats Elevation 2,315 ft / 706 m (AMSL)
Location 36.947350° 37.478064°
Runways 2
Magnetic Variation 5.417° E

METAR

LTAJ 111850Z 00000KT CAVOK 02/M00 Q1028 NOSIG

Decode

TAF

Not found

Destination Runways

ID Width Length Bearing (true) Bearing (mag) Surface Threshold Offset Overrun Length
10L 148 ft / 45 m 9,822 ft / 2,994 m 105.04° 99.62° Concrete 427 ft / 130 m 197 ft / 60 m
10R 100 ft / 30 m 9,821 ft / 2,994 m 105.04° 99.62° Concrete 328 ft / 100 m 197 ft / 60 m
28L 100 ft / 30 m 9,821 ft / 2,994 m 285.06° 279.64° Concrete 0 ft / 0 m 197 ft / 60 m
28R 148 ft / 45 m 9,822 ft / 2,994 m 285.06° 279.64° Concrete 0 ft / 0 m 623 ft / 190 m

Popular Alternatives